Etusivu
METAR-TAF:

METAR-TAF

Lentoasemat :

Macon County Airport

Franklin, Pohjois-Carolina, Yhdysvallat

Leveyspiiri: 35-13N, Pituuspiiri: 083-25W, korkeus merenpinnasta: 616 m

Tämänhetkinen sää

Tämä raportti tehtiin 19 minuuttia sitten, kello 17.15 UTC
tyyntä
Lämpötila 7°C
Kosteus 49%
Ilmanpaine 1031 hPa
Näkyvyys: 16.1 km
selkeää

METAR: K1A5 221715Z AUTO 00000KT 10SM CLR 07/M03 A3044 RMK AO2 T00741032

Aika: 12:34 (17:34 UTC)


TAF: puuttuu

Säähavainnot ja -ennusteet yli 4000 lentoasemalta (METAR- ja TAF-raportit).

Käytössä olevat sääasemat on merkitty karttaan keltaisilla ja punaisilla pisteillä.

Aseta hiiri pisteen päälle nähdäksesi sääaseman nimen.

Klikkaa sitten nähdäksesi säähavainnot ja -ennusteet.

Kartan vaihtaminen: klikkaa mustalla rastilla varustettuja vihreitä pisteitä, niin voit zoomata sisään; viivalla varustettua vihreää pistettä, niin voit zoomata ulos tai vihreitä nuolia, niin pääset viereisille kartoille.


METAR-TAF: